Time;durP1;ratioP1;P1;durP2;ratioP2;P2;SDS_P1;SDS_P2;PMS_P1;PMS_P2;Temp;Humidity;BMP_temperature;BMP_pressure;BME280_temperature;BME280_humidity;BME280_pressure;Samples;Min_cycle;Max_cycle;Signal;HPM_P1;HPM_P2
2023/09/25 00:02:03;;;;;;;9.50;8.77;;;8.80;99.90;;;;;;4976185;28;20709;-79
2023/09/25 00:04:30;;;;;;;9.90;9.03;;;8.80;99.90;;;;;;4974451;28;20280;-78
2023/09/25 00:06:57;;;;;;;9.50;8.70;;;8.80;99.90;;;;;;4972662;28;20209;-78
2023/09/25 00:09:27;;;;;;;9.33;8.70;;;8.80;99.90;;;;;;4980857;28;20225;-78
2023/09/25 00:11:54;;;;;;;9.73;9.03;;;8.90;99.90;;;;;;4972831;28;20493;-78
2023/09/25 00:14:21;;;;;;;10.43;9.43;;;8.80;99.90;;;;;;4969140;28;20721;-77
2023/09/25 00:16:47;;;;;;;9.70;9.00;;;8.90;99.90;;;;;;4973576;28;20229;-78
2023/09/25 00:19:15;;;;;;;9.40;8.70;;;8.90;99.90;;;;;;4972710;28;20213;-78
2023/09/25 00:21:43;;;;;;;9.43;8.73;;;8.90;99.90;;;;;;4972157;28;20214;-78
2023/09/25 00:24:09;;;;;;;10.30;9.40;;;8.90;99.90;;;;;;4972734;28;20202;-78
2023/09/25 00:26:38;;;;;;;9.40;8.70;;;8.90;99.90;;;;;;4971917;28;20197;-79
2023/09/25 00:29:04;;;;;;;9.40;8.70;;;8.90;99.90;;;;;;4974283;28;20222;-77
2023/09/25 00:31:31;;;;;;;9.33;8.53;;;8.90;99.90;;;;;;4972817;28;20256;-78
2023/09/25 00:33:59;;;;;;;9.60;8.83;;;8.80;99.90;;;;;;4972507;28;20212;-77
2023/09/25 00:36:26;;;;;;;9.43;8.73;;;8.80;99.90;;;;;;4972234;28;20202;-78
2023/09/25 00:38:54;;;;;;;9.40;8.70;;;8.80;99.90;;;;;;4972597;28;20193;-78
2023/09/25 00:41:21;;;;;;;10.17;9.27;;;8.80;99.90;;;;;;4981170;28;20216;-78
2023/09/25 00:43:49;;;;;;;9.43;8.73;;;8.80;99.90;;;;;;4971981;28;20249;-79
2023/09/25 00:46:16;;;;;;;9.47;8.87;;;8.80;99.90;;;;;;4983858;28;20208;-78
2023/09/25 00:48:42;;;;;;;9.70;9.00;;;8.70;99.90;;;;;;4984380;28;20667;-78
2023/09/25 00:51:10;;;;;;;9.40;8.80;;;8.60;99.90;;;;;;4977824;28;20214;-78
2023/09/25 00:53:40;;;;;;;9.87;8.97;;;8.60;99.90;;;;;;4977481;28;20233;-78
2023/09/25 00:56:07;;;;;;;10.13;9.30;;;8.60;99.90;;;;;;4975779;28;20202;-78
2023/09/25 00:58:34;;;;;;;9.53;8.83;;;8.60;99.90;;;;;;4976008;28;20202;-79
2023/09/25 01:01:03;;;;;;;9.77;9.07;;;8.60;99.90;;;;;;4977408;28;20217;-78
2023/09/25 01:03:31;;;;;;;10.00;9.10;;;8.60;99.90;;;;;;4976220;28;20614;-78
2023/09/25 01:05:59;;;;;;;9.13;8.43;;;8.60;99.90;;;;;;4975399;28;20744;-78
2023/09/25 01:08:27;;;;;;;8.77;8.17;;;8.60;99.90;;;;;;4975742;28;20259;-79
2023/09/25 01:10:54;;;;;;;9.13;8.43;;;8.60;99.90;;;;;;4975499;28;20242;-78
2023/09/25 01:13:21;;;;;;;9.97;9.27;;;8.60;99.90;;;;;;4983947;28;20194;-78
2023/09/25 01:15:48;;;;;;;10.00;9.10;;;8.60;99.90;;;;;;4975226;28;20225;-78
2023/09/25 01:18:16;;;;;;;9.23;8.63;;;8.60;99.90;;;;;;4977348;28;20200;-78
2023/09/25 01:20:43;;;;;;;10.43;9.63;;;8.60;99.90;;;;;;4975141;28;20230;-78
2023/09/25 01:23:11;;;;;;;9.73;8.93;;;8.60;99.90;;;;;;4975468;28;20293;-78
2023/09/25 01:25:39;;;;;;;9.73;9.00;;;8.60;99.90;;;;;;4971843;28;20214;-78
2023/09/25 01:28:06;;;;;;;9.33;8.73;;;8.60;99.90;;;;;;4984353;28;20626;-78
2023/09/25 01:30:33;;;;;;;9.73;9.03;;;8.60;99.90;;;;;;4976805;28;20217;-78
2023/09/25 01:33:00;;;;;;;9.17;8.57;;;8.50;99.90;;;;;;4970431;28;20210;-78
2023/09/25 01:35:27;;;;;;;9.87;9.17;;;8.50;99.90;;;;;;4975225;28;20206;-78
2023/09/25 01:37:58;;;;;;;9.93;9.23;;;8.50;99.90;;;;;;4975431;28;20226;-78
2023/09/25 01:40:27;;;;;;;9.57;8.80;;;8.50;99.90;;;;;;4975294;28;20253;-78
2023/09/25 01:42:54;;;;;;;9.50;8.80;;;8.50;99.90;;;;;;4978208;28;20206;-79
2023/09/25 01:45:21;;;;;;;9.53;8.90;;;8.50;99.90;;;;;;4984338;28;20205;-78
2023/09/25 01:47:50;;;;;;;8.93;8.33;;;8.50;99.90;;;;;;4983192;28;20213;-78
2023/09/25 01:50:18;;;;;;;9.80;9.00;;;8.50;99.90;;;;;;4970708;28;20229;-78
2023/09/25 01:52:47;;;;;;;9.40;8.80;;;8.40;99.90;;;;;;4974546;28;20206;-78
2023/09/25 01:55:14;;;;;;;9.77;8.97;;;8.40;99.90;;;;;;4982328;28;20225;-78
2023/09/25 01:57:42;;;;;;;9.90;9.20;;;8.40;99.90;;;;;;4976829;28;20221;-78
2023/09/25 02:00:10;;;;;;;10.03;9.43;;;8.40;99.90;;;;;;4974895;28;20255;-78
2023/09/25 02:02:42;;;;;;;9.90;9.20;;;8.40;99.90;;;;;;4970502;28;20203;-78
2023/09/25 02:05:10;;;;;;;10.33;9.63;;;8.30;99.90;;;;;;4974780;28;20208;-78
2023/09/25 02:07:37;;;;;;;10.30;9.57;;;8.30;99.90;;;;;;4974674;28;20217;-77
2023/09/25 02:10:04;;;;;;;10.07;9.27;;;8.30;99.90;;;;;;4976124;28;20604;-78
2023/09/25 02:12:31;;;;;;;10.03;9.23;;;8.30;99.90;;;;;;4974434;28;20201;-78
2023/09/25 02:15:04;;;;;;;11.37;10.33;;;8.30;99.90;;;;;;4974913;28;20201;-79
2023/09/25 02:17:31;;;;;;;10.87;9.97;;;8.30;99.90;;;;;;4974496;28;20202;-78
2023/09/25 02:20:09;;;;;;;9.80;9.00;;;8.30;99.90;;;;;;4974416;28;20230;-78
2023/09/25 02:22:36;;;;;;;9.70;9.00;;;8.20;99.90;;;;;;4974954;28;20229;-78
2023/09/25 02:25:03;;;;;;;10.23;9.53;;;8.20;99.90;;;;;;4974505;28;20205;-78
2023/09/25 02:27:29;;;;;;;9.53;8.80;;;8.20;99.90;;;;;;4976874;28;20217;-78
2023/09/25 02:29:56;;;;;;;9.73;9.03;;;8.20;99.90;;;;;;4990714;28;20310;-78
2023/09/25 02:32:25;;;;;;;9.90;9.20;;;8.20;99.90;;;;;;4974578;28;20225;-78
2023/09/25 02:34:52;;;;;;;10.33;9.63;;;8.10;99.90;;;;;;4974361;28;20222;-78
2023/09/25 02:37:19;;;;;;;10.33;9.63;;;8.10;99.90;;;;;;4973907;28;20206;-78
2023/09/25 02:39:46;;;;;;;10.20;9.50;;;8.10;99.90;;;;;;4974120;28;20229;-78
2023/09/25 02:42:13;;;;;;;10.40;9.60;;;8.10;99.90;;;;;;4980548;28;20695;-78
2023/09/25 02:44:40;;;;;;;9.70;9.00;;;8.10;99.90;;;;;;4984241;28;20217;-78
2023/09/25 02:47:07;;;;;;;9.77;9.17;;;8.10;99.90;;;;;;4974038;28;20213;-77
2023/09/25 02:49:36;;;;;;;10.27;9.47;;;8.00;99.90;;;;;;4973557;28;20226;-76
2023/09/25 02:52:02;;;;;;;10.00;9.30;;;8.00;99.90;;;;;;4974266;28;20243;-77
2023/09/25 02:54:30;;;;;;;9.53;8.93;;;7.90;99.90;;;;;;4974507;28;20202;-76
2023/09/25 02:56:57;;;;;;;9.90;9.27;;;7.80;99.90;;;;;;4974605;28;20660;-77
2023/09/25 02:59:24;;;;;;;9.57;8.87;;;7.80;99.90;;;;;;4964091;28;20237;-78
2023/09/25 03:01:51;;;;;;;10.00;9.30;;;7.70;99.90;;;;;;4968848;28;20771;-79
2023/09/25 03:04:18;;;;;;;9.83;9.13;;;7.70;99.90;;;;;;4974579;28;20233;-79
2023/09/25 03:06:46;;;;;;;9.97;9.27;;;7.70;99.90;;;;;;4976080;28;20680;-79
2023/09/25 03:09:13;;;;;;;10.50;9.80;;;7.60;99.90;;;;;;4974443;28;20623;-79
2023/09/25 03:11:40;;;;;;;9.57;8.87;;;7.70;99.90;;;;;;4975676;28;20672;-79
2023/09/25 03:14:07;;;;;;;10.23;9.53;;;7.60;99.90;;;;;;4974887;28;20201;-78
2023/09/25 03:16:37;;;;;;;10.23;9.57;;;7.60;99.90;;;;;;4973839;28;20868;-81
2023/09/25 03:19:04;;;;;;;10.30;9.70;;;7.60;99.90;;;;;;4991190;28;20208;-79
2023/09/25 03:21:31;;;;;;;10.90;10.00;;;7.50;99.90;;;;;;4974440;28;20217;-78
2023/09/25 03:23:59;;;;;;;10.77;9.97;;;7.50;99.90;;;;;;4973552;28;20204;-78
2023/09/25 03:26:26;;;;;;;10.37;9.67;;;7.50;99.90;;;;;;4963422;28;20208;-78
2023/09/25 03:28:53;;;;;;;10.93;10.13;;;7.50;99.90;;;;;;4975194;28;20300;-78
2023/09/25 03:31:20;;;;;;;11.03;10.20;;;7.50;99.90;;;;;;4973841;28;20213;-80
2023/09/25 03:33:47;;;;;;;10.97;10.27;;;7.50;99.90;;;;;;4978072;28;20205;-79
2023/09/25 03:36:13;;;;;;;8.60;8.00;;;7.50;99.90;;;;;;4975476;28;20197;-79
2023/09/25 03:38:40;;;;;;;8.80;8.10;;;7.40;99.90;;;;;;4975363;28;20207;-79
2023/09/25 03:41:08;;;;;;;11.70;10.80;;;7.40;99.90;;;;;;4974832;28;20225;-78
2023/09/25 03:43:35;;;;;;;10.90;10.10;;;7.40;99.90;;;;;;4975673;28;20264;-79
2023/09/25 03:46:03;;;;;;;10.63;9.90;;;7.50;99.90;;;;;;4975343;28;20224;-80
2023/09/25 03:48:30;;;;;;;10.73;10.03;;;7.40;99.90;;;;;;4975024;28;20200;-78
2023/09/25 03:50:57;;;;;;;11.23;10.43;;;7.40;99.90;;;;;;4972099;28;20220;-76
2023/09/25 03:53:24;;;;;;;11.50;10.70;;;7.40;99.90;;;;;;4972874;28;20201;-76
2023/09/25 03:55:51;;;;;;;10.83;10.13;;;7.40;99.90;;;;;;4971905;28;20211;-76
2023/09/25 03:58:19;;;;;;;11.17;10.37;;;7.30;99.90;;;;;;4974269;28;20251;-77
2023/09/25 04:00:46;;;;;;;11.03;10.33;;;7.30;99.90;;;;;;4971818;28;20224;-76
2023/09/25 04:03:13;;;;;;;10.80;10.10;;;7.30;99.90;;;;;;4972894;28;20200;-77
2023/09/25 04:05:39;;;;;;;11.03;10.23;;;7.30;99.90;;;;;;4971325;28;20220;-76
2023/09/25 04:08:06;;;;;;;10.83;10.13;;;7.30;99.90;;;;;;4971753;28;20614;-76
2023/09/25 04:10:33;;;;;;;10.47;9.77;;;7.30;99.90;;;;;;4981136;28;20234;-76
2023/09/25 04:13:00;;;;;;;10.30;9.67;;;7.30;99.90;;;;;;4971685;28;20327;-76
2023/09/25 04:15:28;;;;;;;10.23;9.40;;;7.30;99.90;;;;;;4972360;28;20200;-76
2023/09/25 04:17:57;;;;;;;10.30;9.50;;;7.30;99.90;;;;;;4972755;28;20624;-76
2023/09/25 04:20:25;;;;;;;10.63;9.83;;;7.20;99.90;;;;;;4971549;28;20770;-76
2023/09/25 04:22:52;;;;;;;11.30;10.40;;;7.20;99.90;;;;;;4971275;28;20315;-76
2023/09/25 04:25:20;;;;;;;10.30;9.60;;;7.10;99.90;;;;;;4971331;28;20235;-79
2023/09/25 04:27:48;;;;;;;11.00;10.20;;;7.10;99.90;;;;;;4972704;28;20200;-76
2023/09/25 04:30:15;;;;;;;11.07;10.27;;;7.10;99.90;;;;;;4971350;28;20219;-76
2023/09/25 04:32:46;;;;;;;10.63;9.93;;;7.10;99.90;;;;;;4971053;28;20205;-74
2023/09/25 04:35:13;;;;;;;11.20;10.37;;;7.10;99.90;;;;;;4965170;28;20666;-76
2023/09/25 04:37:41;;;;;;;11.03;10.27;;;7.10;99.90;;;;;;4971326;28;20251;-76
2023/09/25 04:40:14;;;;;;;11.10;10.30;;;7.10;99.90;;;;;;4975815;28;20219;-76
2023/09/25 04:42:41;;;;;;;11.13;10.33;;;7.10;99.90;;;;;;4987200;28;20245;-76
2023/09/25 04:45:12;;;;;;;11.10;10.23;;;7.10;99.90;;;;;;4981841;28;20203;-76
2023/09/25 04:47:41;;;;;;;11.23;10.33;;;7.10;99.90;;;;;;4988015;28;20597;-76
2023/09/25 04:50:10;;;;;;;11.07;10.17;;;7.10;99.90;;;;;;4970687;28;20224;-76
2023/09/25 04:52:38;;;;;;;11.10;10.20;;;7.00;99.90;;;;;;4972264;28;20200;-76
2023/09/25 04:55:06;;;;;;;12.83;11.50;;;7.00;99.90;;;;;;4972274;28;20261;-76
2023/09/25 04:57:33;;;;;;;12.10;11.30;;;7.00;99.90;;;;;;4973175;28;20208;-76
2023/09/25 05:00:00;;;;;;;13.03;11.87;;;7.00;99.90;;;;;;4975072;28;20646;-79
2023/09/25 05:02:26;;;;;;;12.27;11.30;;;6.90;99.90;;;;;;4977338;28;20213;-78
2023/09/25 05:04:53;;;;;;;12.68;11.77;;;6.90;99.90;;;;;;4977080;28;20450;-78
2023/09/25 05:07:21;;;;;;;12.82;11.82;;;6.80;99.90;;;;;;4975652;28;20445;-78
2023/09/25 05:09:49;;;;;;;13.23;11.93;;;6.80;99.90;;;;;;4976948;28;20225;-77
2023/09/25 05:12:16;;;;;;;13.03;11.93;;;6.80;99.90;;;;;;4975215;28;20196;-78
2023/09/25 05:14:43;;;;;;;11.77;10.97;;;6.80;99.90;;;;;;4975833;28;20215;-79
2023/09/25 05:17:10;;;;;;;12.70;11.50;;;6.90;99.90;;;;;;4973607;28;20205;-79
2023/09/25 05:19:36;;;;;;;11.93;10.93;;;6.80;99.90;;;;;;4972029;28;20228;-78
2023/09/25 05:22:03;;;;;;;12.53;11.47;;;6.80;99.90;;;;;;4974480;28;20229;-77
2023/09/25 05:24:31;;;;;;;11.47;10.63;;;6.80;99.90;;;;;;4975942;28;20200;-79
2023/09/25 05:26:58;;;;;;;12.90;11.77;;;6.80;99.90;;;;;;4975654;28;20643;-79
2023/09/25 05:29:25;;;;;;;12.10;11.20;;;6.80;99.90;;;;;;4979908;28;20587;-78
2023/09/25 05:31:52;;;;;;;11.83;10.80;;;6.80;99.90;;;;;;4979363;28;20736;-78
2023/09/25 05:34:18;;;;;;;11.37;10.50;;;6.80;99.90;;;;;;4978975;28;20204;-78
2023/09/25 05:36:46;;;;;;;11.87;10.97;;;6.90;99.90;;;;;;4987463;28;20200;-78
2023/09/25 05:39:13;;;;;;;11.47;10.57;;;6.90;99.90;;;;;;4981345;28;20271;-77
2023/09/25 05:41:41;;;;;;;11.80;10.90;;;6.90;99.90;;;;;;4979882;28;20458;-77
2023/09/25 05:44:09;;;;;;;11.57;10.67;;;6.90;99.90;;;;;;4978949;28;20560;-78
2023/09/25 05:46:36;;;;;;;11.03;10.23;;;6.90;99.90;;;;;;4975611;28;20204;-75
2023/09/25 05:49:06;;;;;;;11.60;10.50;;;7.00;99.90;;;;;;4976934;28;20205;-78
2023/09/25 05:51:33;;;;;;;11.77;10.88;;;7.00;99.90;;;;;;4975984;28;20442;-77
2023/09/25 05:54:00;;;;;;;11.67;10.77;;;7.10;99.90;;;;;;4978820;28;20198;-78
2023/09/25 05:56:28;;;;;;;10.90;10.10;;;7.20;99.90;;;;;;4979533;28;20200;-76
2023/09/25 05:58:56;;;;;;;10.70;9.90;;;7.30;99.90;;;;;;4983833;28;20240;-76
2023/09/25 06:01:23;;;;;;;10.53;9.73;;;7.40;99.90;;;;;;4974867;28;20315;-75
2023/09/25 06:03:50;;;;;;;10.47;9.67;;;7.50;99.90;;;;;;4974627;28;20202;-75
2023/09/25 06:06:17;;;;;;;10.90;10.17;;;7.60;99.90;;;;;;4966634;28;20194;-76
2023/09/25 06:08:44;;;;;;;10.17;9.47;;;7.70;99.90;;;;;;4973607;28;20240;-75
2023/09/25 06:11:10;;;;;;;10.10;9.40;;;7.80;99.90;;;;;;4973155;28;20221;-75
2023/09/25 06:13:37;;;;;;;10.97;10.17;;;7.90;99.90;;;;;;4974817;28;20201;-76
2023/09/25 06:16:06;;;;;;;10.73;9.90;;;7.90;99.90;;;;;;4982404;28;20635;-76
2023/09/25 06:18:33;;;;;;;10.87;10.10;;;8.00;99.90;;;;;;4973274;28;20296;-75
2023/09/25 06:20:59;;;;;;;10.60;9.80;;;8.10;99.90;;;;;;4973161;28;20267;-76
2023/09/25 06:23:26;;;;;;;10.57;9.67;;;8.20;99.90;;;;;;4973351;28;20229;-76
2023/09/25 06:25:53;;;;;;;10.40;9.63;;;8.20;99.90;;;;;;4974089;28;20259;-76
2023/09/25 06:28:23;;;;;;;10.20;9.40;;;8.30;99.90;;;;;;4965498;28;20685;-76
2023/09/25 06:30:50;;;;;;;10.37;9.57;;;8.30;99.90;;;;;;4974657;28;20240;-76
2023/09/25 06:33:18;;;;;;;10.50;9.77;;;8.40;99.90;;;;;;4974131;28;20677;-76
2023/09/25 06:35:45;;;;;;;10.40;9.70;;;8.50;99.90;;;;;;4972905;28;20832;-76
2023/09/25 06:38:12;;;;;;;10.57;9.77;;;8.60;99.90;;;;;;4974067;28;20202;-76
2023/09/25 06:40:44;;;;;;;9.63;9.00;;;8.60;99.90;;;;;;4972814;28;20269;-76
2023/09/25 06:43:12;;;;;;;9.80;9.10;;;8.70;99.90;;;;;;4974217;28;20233;-76
2023/09/25 06:45:38;;;;;;;10.13;9.43;;;8.80;99.90;;;;;;4974107;28;20248;-76
2023/09/25 06:48:06;;;;;;;9.77;9.07;;;9.00;99.90;;;;;;4973932;28;20206;-76
2023/09/25 06:50:34;;;;;;;10.00;9.30;;;9.00;99.90;;;;;;4974620;28;20220;-75
2023/09/25 06:53:01;;;;;;;9.30;8.70;;;9.10;99.90;;;;;;4976271;28;20676;-75
2023/09/25 06:55:27;;;;;;;9.40;8.70;;;9.30;99.90;;;;;;4973768;28;20252;-76
2023/09/25 06:57:54;;;;;;;9.43;8.73;;;9.40;99.90;;;;;;4973862;28;20681;-76
2023/09/25 07:00:23;;;;;;;8.97;8.30;;;9.60;99.90;;;;;;4973529;28;20248;-76
2023/09/25 07:02:51;;;;;;;8.50;7.80;;;9.80;99.90;;;;;;4973827;28;20213;-76
2023/09/25 07:05:18;;;;;;;9.20;8.60;;;10.10;99.90;;;;;;4973274;28;20201;-76
2023/09/25 07:07:47;;;;;;;9.40;8.70;;;10.40;99.90;;;;;;4973772;28;20665;-75
2023/09/25 07:10:14;;;;;;;6.60;6.10;;;10.80;99.90;;;;;;4972072;28;20261;-76
2023/09/25 07:12:41;;;;;;;8.83;8.13;;;11.20;99.90;;;;;;4973751;28;20276;-76
2023/09/25 07:15:09;;;;;;;7.33;6.00;;;11.50;99.90;;;;;;4972752;28;20202;-76
2023/09/25 07:17:36;;;;;;;4.87;4.47;;;12.10;99.90;;;;;;4973471;28;20210;-76
2023/09/25 07:20:05;;;;;;;4.83;4.43;;;12.60;99.90;;;;;;4973284;28;20240;-76
2023/09/25 07:22:32;;;;;;;6.07;5.57;;;13.10;99.90;;;;;;4972110;28;20218;-75
2023/09/25 07:25:00;;;;;;;6.83;6.23;;;13.50;99.90;;;;;;4980033;28;20197;-75
2023/09/25 07:27:28;;;;;;;5.73;5.13;;;14.00;99.90;;;;;;4972519;28;20235;-80
2023/09/25 07:29:55;;;;;;;6.83;6.00;;;14.40;99.90;;;;;;4978108;28;20646;-79
2023/09/25 07:32:22;;;;;;;6.20;5.60;;;14.90;99.90;;;;;;4977372;28;20188;-79
2023/09/25 07:34:49;;;;;;;5.27;4.33;;;15.20;99.90;;;;;;4974280;28;20216;-76
2023/09/25 07:37:17;;;;;;;3.90;3.50;;;15.50;99.90;;;;;;4973158;28;20192;-76
2023/09/25 07:39:44;;;;;;;3.77;3.37;;;16.00;99.90;;;;;;4972037;28;20230;-76
2023/09/25 07:42:13;;;;;;;4.03;3.60;;;16.30;99.90;;;;;;4973772;28;20220;-76
2023/09/25 07:44:40;;;;;;;5.93;3.53;;;16.60;99.90;;;;;;4972310;28;20277;-76
2023/09/25 07:47:10;;;;;;;9.40;8.70;;;16.80;99.90;;;;;;4974967;28;20202;-77
2023/09/25 07:49:40;;;;;;;8.10;7.30;;;17.30;99.90;;;;;;4971952;28;20221;-76
2023/09/25 07:52:15;;;;;;;8.57;7.77;;;17.50;99.90;;;;;;4974106;28;20192;-76
2023/09/25 07:54:43;;;;;;;8.47;7.77;;;17.50;99.90;;;;;;4973286;28;20201;-74
2023/09/25 07:57:14;;;;;;;9.50;8.53;;;17.80;99.90;;;;;;4972552;28;20229;-76
2023/09/25 07:59:41;;;;;;;5.80;3.80;;;18.20;99.90;;;;;;4968250;28;20249;-76
2023/09/25 08:02:08;;;;;;;4.80;4.13;;;18.00;99.90;;;;;;4972483;28;20771;-77
2023/09/25 08:04:35;;;;;;;4.07;3.37;;;18.00;99.90;;;;;;4972678;28;20206;-76
2023/09/25 08:07:02;;;;;;;5.97;3.80;;;18.00;99.90;;;;;;4974640;28;20208;-77
2023/09/25 08:09:29;;;;;;;6.83;3.67;;;17.90;99.90;;;;;;4966054;28;20228;-76
2023/09/25 08:11:56;;;;;;;5.50;3.47;;;18.10;99.90;;;;;;4974307;28;20208;-77
2023/09/25 08:14:25;;;;;;;5.93;3.67;;;18.30;99.90;;;;;;4972952;28;20213;-76
2023/09/25 08:16:52;;;;;;;3.70;3.10;;;18.30;99.90;;;;;;4974163;28;20205;-76
2023/09/25 08:19:22;;;;;;;7.83;7.13;;;18.30;99.90;;;;;;4974188;28;20259;-77
2023/09/25 08:21:50;;;;;;;8.10;7.27;;;18.30;99.90;;;;;;4973190;28;20267;-76
2023/09/25 08:24:17;;;;;;;8.30;7.70;;;18.00;99.90;;;;;;4974257;28;20648;-77
2023/09/25 08:26:46;;;;;;;9.30;8.60;;;18.00;99.90;;;;;;4973829;28;20587;-77
2023/09/25 08:29:13;;;;;;;8.40;7.70;;;18.10;99.90;;;;;;4972586;28;20205;-76
2023/09/25 08:31:43;;;;;;;5.03;4.07;;;18.00;99.90;;;;;;4977777;28;20220;-76
2023/09/25 08:34:10;;;;;;;8.93;8.13;;;18.20;99.90;;;;;;4976709;28;20212;-77
2023/09/25 08:36:37;;;;;;;5.17;4.00;;;18.60;99.90;;;;;;4965900;28;20285;-76
2023/09/25 08:39:04;;;;;;;4.23;3.67;;;18.60;99.90;;;;;;4970134;28;20668;-76
2023/09/25 08:41:32;;;;;;;7.30;6.70;;;18.80;99.90;;;;;;4983658;28;20264;-78
2023/09/25 08:43:59;;;;;;;8.60;4.27;;;19.10;99.90;;;;;;4989500;28;20783;-79
2023/09/25 08:46:26;;;;;;;4.43;3.33;;;19.10;99.90;;;;;;4979902;28;20764;-77
2023/09/25 08:48:56;;;;;;;7.17;4.20;;;19.10;99.90;;;;;;4979152;28;20214;-77
2023/09/25 08:51:25;;;;;;;8.23;4.97;;;19.30;99.90;;;;;;4973056;28;20709;-77
2023/09/25 08:53:52;;;;;;;7.40;6.70;;;19.60;99.90;;;;;;4974335;28;20190;-77
2023/09/25 08:56:20;;;;;;;7.03;6.50;;;19.70;99.90;;;;;;4972721;28;20237;-76
2023/09/25 08:58:50;;;;;;;8.93;8.13;;;19.80;99.90;;;;;;4968537;28;20280;-77
2023/09/25 09:01:18;;;;;;;4.50;3.43;;;20.10;99.90;;;;;;4976235;28;20222;-79
2023/09/25 09:03:45;;;;;;;5.53;5.13;;;19.90;99.90;;;;;;4979034;28;20217;-77
2023/09/25 09:06:14;;;;;;;7.80;7.00;;;20.10;99.90;;;;;;4977604;28;20225;-76
2023/09/25 09:08:43;;;;;;;9.20;8.50;;;20.30;99.90;;;;;;4977827;28;20619;-77
2023/09/25 09:11:11;;;;;;;9.10;8.20;;;20.10;99.90;;;;;;4977336;28;20218;-77
2023/09/25 09:13:44;;;;;;;3.53;3.17;;;20.00;99.90;;;;;;4970065;28;20653;-76
2023/09/25 09:16:15;;;;;;;5.63;3.80;;;20.30;99.90;;;;;;4977886;28;20194;-77
2023/09/25 09:18:42;;;;;;;4.43;3.53;;;20.40;99.90;;;;;;4976341;28;20206;-77
2023/09/25 09:21:24;;;;;;;8.87;8.17;;;20.20;99.90;;;;;;4976172;28;20768;-75
2023/09/25 09:23:53;;;;;;;8.70;8.10;;;20.30;99.90;;;;;;4971707;28;20245;-74
2023/09/25 09:26:20;;;;;;;9.67;8.63;;;20.10;99.90;;;;;;4976248;28;20202;-76
2023/09/25 09:28:48;;;;;;;9.10;8.40;;;20.50;99.90;;;;;;4977537;28;20193;-76
2023/09/25 09:31:17;;;;;;;5.43;3.20;;;20.60;99.90;;;;;;4975310;28;20221;-77
2023/09/25 09:33:44;;;;;;;8.63;7.93;;;20.90;99.90;;;;;;4976924;28;20201;-76
2023/09/25 09:36:12;;;;;;;8.67;7.97;;;21.10;99.90;;;;;;4975342;28;20206;-76
2023/09/25 09:38:41;;;;;;;9.03;8.30;;;21.00;99.90;;;;;;4971169;28;20669;-78
2023/09/25 09:41:13;;;;;;;4.00;2.90;;;21.00;99.90;;;;;;4979071;28;20221;-80
2023/09/25 09:43:41;;;;;;;4.77;3.20;;;21.00;99.90;;;;;;4977815;28;20217;-77
2023/09/25 09:46:11;;;;;;;4.57;3.13;;;20.60;99.90;;;;;;4977578;28;20198;-76
2023/09/25 09:48:40;;;;;;;3.37;3.07;;;20.10;99.90;;;;;;4969513;28;20214;-77
2023/09/25 09:51:12;;;;;;;3.97;2.93;;;20.00;99.90;;;;;;4977168;28;20224;-77
2023/09/25 09:53:41;;;;;;;6.47;6.00;;;20.00;99.90;;;;;;4988690;28;20292;-77
2023/09/25 09:56:08;;;;;;;2.80;2.60;;;20.20;99.90;;;;;;4976680;28;20538;-76
2023/09/25 09:58:38;;;;;;;4.20;2.93;;;20.10;99.90;;;;;;4975736;28;20585;-77
2023/09/25 10:01:05;;;;;;;3.70;3.17;;;20.10;99.90;;;;;;4976710;28;20229;-77
2023/09/25 10:03:32;;;;;;;5.00;3.00;;;20.10;99.90;;;;;;4976282;28;20221;-76
2023/09/25 10:06:00;;;;;;;4.70;3.00;;;20.00;99.90;;;;;;4975122;28;20221;-77
2023/09/25 10:08:27;;;;;;;5.30;2.97;;;20.10;99.90;;;;;;4976884;28;20198;-77
2023/09/25 10:11:14;;;;;;;6.43;3.23;;;19.90;99.90;;;;;;4976746;28;20241;-77
2023/09/25 10:13:42;;;;;;;4.00;3.57;;;19.60;99.90;;;;;;4968255;28;20661;-76
2023/09/25 10:16:10;;;;;;;6.13;5.43;;;19.60;99.90;;;;;;4975642;28;20194;-77
2023/09/25 10:18:36;;;;;;;3.63;3.23;;;19.60;99.90;;;;;;4977511;28;20202;-79
2023/09/25 10:21:09;;;;;;;4.60;4.20;;;19.60;99.90;;;;;;4978739;28;20233;-80
2023/09/25 10:23:36;;;;;;;4.93;2.67;;;19.50;99.90;;;;;;4977514;28;20708;-80
2023/09/25 10:26:05;;;;;;;4.40;3.37;;;19.60;99.90;;;;;;4972680;28;20264;-79
2023/09/25 10:28:34;;;;;;;5.57;2.80;;;19.60;99.90;;;;;;4976667;28;20622;-79
2023/09/25 10:31:03;;;;;;;4.13;2.93;;;19.60;99.90;;;;;;4976457;28;20241;-79
2023/09/25 10:33:32;;;;;;;2.47;2.27;;;19.70;99.90;;;;;;4977818;28;20233;-78
2023/09/25 10:36:03;;;;;;;3.93;3.63;;;19.70;99.90;;;;;;4975600;28;20735;-79
2023/09/25 10:38:32;;;;;;;3.53;2.63;;;19.50;99.90;;;;;;4976904;28;20201;-79
2023/09/25 10:41:06;;;;;;;4.50;2.70;;;19.50;99.90;;;;;;4976262;28;20291;-79
2023/09/25 10:43:35;;;;;;;7.07;6.57;;;19.70;99.90;;;;;;4976556;28;20248;-80
2023/09/25 10:46:03;;;;;;;6.90;6.40;;;19.70;99.90;;;;;;4972529;28;20645;-79
2023/09/25 10:48:31;;;;;;;7.00;6.50;;;19.80;99.90;;;;;;4976586;28;20673;-78
2023/09/25 10:50:58;;;;;;;6.97;6.47;;;19.90;99.90;;;;;;4978356;28;20222;-79
2023/09/25 10:53:26;;;;;;;7.40;6.90;;;20.00;99.90;;;;;;4976273;28;20198;-79
2023/09/25 10:55:52;;;;;;;7.20;6.60;;;20.00;99.90;;;;;;4976837;28;20254;-77
2023/09/25 10:58:21;;;;;;;8.00;7.00;;;19.70;99.90;;;;;;4977696;28;20205;-77
2023/09/25 11:00:49;;;;;;;6.70;6.17;;;19.70;99.90;;;;;;4971294;28;20261;-80
2023/09/25 11:03:16;;;;;;;7.40;6.80;;;19.70;99.90;;;;;;4979778;28;20226;-79
2023/09/25 11:05:44;;;;;;;7.03;6.57;;;19.80;99.90;;;;;;4977514;28;20206;-79
2023/09/25 11:08:15;;;;;;;7.70;7.00;;;19.90;99.90;;;;;;4978857;28;20200;-78
2023/09/25 11:10:43;;;;;;;6.67;6.20;;;19.90;99.90;;;;;;4977099;28;20232;-80
2023/09/25 11:13:10;;;;;;;7.20;6.60;;;19.80;99.90;;;;;;4978564;28;20620;-79
2023/09/25 11:15:39;;;;;;;6.70;6.20;;;19.70;99.90;;;;;;4979638;28;20197;-80
2023/09/25 11:18:08;;;;;;;6.60;6.10;;;19.70;99.90;;;;;;4980052;28;20223;-79
2023/09/25 11:20:37;;;;;;;7.20;6.20;;;19.70;99.90;;;;;;4977759;28;20233;-78
2023/09/25 11:23:06;;;;;;;7.40;6.70;;;19.70;99.90;;;;;;4977735;28;20198;-79
2023/09/25 11:25:41;;;;;;;7.57;6.97;;;19.70;99.90;;;;;;4976299;28;20627;-79
2023/09/25 11:28:08;;;;;;;6.70;6.20;;;19.70;99.90;;;;;;4977550;28;20263;-80
2023/09/25 11:30:35;;;;;;;7.00;6.50;;;19.70;99.90;;;;;;4976997;28;20708;-78
2023/09/25 11:33:09;;;;;;;7.17;6.47;;;19.60;99.90;;;;;;4978150;28;20248;-78
2023/09/25 11:35:38;;;;;;;7.20;6.60;;;19.60;99.90;;;;;;4977966;28;20659;-78
2023/09/25 11:38:13;;;;;;;6.90;6.40;;;19.60;99.90;;;;;;4978165;28;20201;-78
2023/09/25 11:40:40;;;;;;;6.90;6.30;;;19.70;99.90;;;;;;4979021;28;20225;-78
2023/09/25 11:43:07;;;;;;;6.43;6.00;;;19.80;99.90;;;;;;4977913;28;20233;-78
2023/09/25 11:45:34;;;;;;;7.10;6.53;;;19.80;99.90;;;;;;4979478;28;20221;-78
2023/09/25 11:48:01;;;;;;;7.53;6.67;;;19.80;99.90;;;;;;4980730;28;20225;-79
2023/09/25 11:50:30;;;;;;;7.00;6.50;;;19.80;99.90;;;;;;4977909;28;20222;-79
2023/09/25 11:52:56;;;;;;;7.30;6.80;;;19.70;99.90;;;;;;4979378;28;20206;-80
2023/09/25 11:55:23;;;;;;;7.03;6.53;;;19.70;99.90;;;;;;4979004;28;20190;-79
2023/09/25 11:57:50;;;;;;;7.47;6.97;;;19.70;99.90;;;;;;4973972;28;20189;-79
2023/09/25 12:00:19;;;;;;;8.13;7.53;;;19.80;99.90;;;;;;4979282;28;20637;-80
2023/09/25 12:02:47;;;;;;;7.50;6.80;;;19.80;99.90;;;;;;4980139;28;20212;-79
2023/09/25 12:05:14;;;;;;;7.13;6.63;;;19.70;99.90;;;;;;4978277;28;20225;-79
2023/09/25 12:07:43;;;;;;;7.63;6.93;;;19.70;99.90;;;;;;4978506;28;20202;-79
2023/09/25 12:10:12;;;;;;;7.20;6.60;;;19.70;99.90;;;;;;4977853;28;20225;-80
2023/09/25 12:12:40;;;;;;;7.03;6.53;;;19.60;99.90;;;;;;4979725;28;20662;-79
2023/09/25 12:15:08;;;;;;;6.43;5.93;;;19.60;99.90;;;;;;4977560;28;20217;-80
2023/09/25 12:17:36;;;;;;;6.10;5.70;;;19.60;99.90;;;;;;4978086;28;20205;-78
2023/09/25 12:20:11;;;;;;;7.00;6.40;;;19.70;99.90;;;;;;4977649;28;20731;-79
2023/09/25 12:22:39;;;;;;;7.17;6.60;;;19.80;99.90;;;;;;4978854;28;20715;-78
2023/09/25 12:25:11;;;;;;;7.03;6.43;;;19.80;99.90;;;;;;4977444;28;20222;-80
2023/09/25 12:27:40;;;;;;;7.10;6.60;;;19.80;99.90;;;;;;4978432;28;20206;-79
2023/09/25 12:30:09;;;;;;;6.87;6.27;;;19.70;99.90;;;;;;4979469;28;20225;-80
2023/09/25 12:32:37;;;;;;;7.20;6.60;;;19.70;99.90;;;;;;4978518;28;20212;-80
2023/09/25 12:35:05;;;;;;;7.40;6.80;;;19.70;99.90;;;;;;4976620;28;20208;-78
2023/09/25 12:37:32;;;;;;;6.57;6.17;;;19.70;99.90;;;;;;4980789;28;20402;-80
2023/09/25 12:39:58;;;;;;;6.90;6.40;;;19.80;99.90;;;;;;4993000;28;20629;-80
2023/09/25 12:42:28;;;;;;;6.60;6.20;;;19.80;99.90;;;;;;4993794;28;20255;-80
2023/09/25 12:44:55;;;;;;;6.40;6.00;;;19.80;99.90;;;;;;4988301;28;20238;-78
2023/09/25 12:47:25;;;;;;;6.70;6.10;;;20.00;99.90;;;;;;4987274;28;20205;-79
2023/09/25 12:49:52;;;;;;;6.30;5.90;;;20.00;99.90;;;;;;4988199;28;20225;-79
2023/09/25 12:52:19;;;;;;;7.10;6.40;;;20.00;99.90;;;;;;4981507;28;20209;-79